LOWK

Klagenfurt Airport

Klagenfurt am Wörthersee, Austria
TAF LOWK 200515Z 2006/2106 VRB02KT 9999 BKN035 TXM01/2014Z TNM06/2105Z BECMG 2010/2012 FEW030 SCT250 TEMPO 2021/2024 3000 FZBCFG NSC BECMG 2101/2103 5000 BR BKN005
Issued Valid From Valid To
Jan-20 @ 05:15 UTC
(6 hours ago)
Jan-20 @ 06:00 UTC
(5 hours ago)
Jan-21 @ 06:00 UTC
(in 19 hours)
Expired Click to View Jan-20 @ 06:00 to Jan-20 @ 10:00
TAF LOWK 200515Z 2006/2106 VRB02KT 9999 BKN035 TXM01/2014Z TNM06/2105Z
Wind Visibility Clouds
Variable at 2 knots 10,000+ meters
  • Broken at 3,500' AGL
Becoming Jan-20 @ 10:00 to Jan-21 @ 01:00
BECMG 2010/2012 FEW030 SCT250
Wind Visibility Clouds
Variable at 2 knots 10,000+ meters
  • Few at 3,000' AGL
  • Scattered at 25,000' AGL
Temporary Jan-20 @ 21:00 to Jan-21 @ 00:00
TEMPO 2021/2024 3000 FZBCFG NSC
Visibility Clouds Conditions
2,993 meters
  • No significant clouds
  • Freezing
  • Patches of
  • Fog
Becoming Jan-21 @ 01:00 to Jan-21 @ 06:00
BECMG 2101/2103 5000 BR BKN005
Wind Visibility Clouds Conditions
Variable at 2 knots 5,005 meters
  • Broken at 500' AGL
  • Mist
TAF LOWK 200515Z 2006/2106 VRB02KT 9999 BKN035 TXM01/2014Z TNM06/2105Z BECMG 2010/2012 FEW030 SCT250 TEMPO 2021/2024 3000 FZBCFG NSC BECMG 2101/2103 5000 BR BKN005
Issued Jan-20 @ 05:15 UTC
(6 hours ago)
Valid From Jan-20 @ 06:00 UTC
(5 hours ago)
Valid To Jan-21 @ 06:00 UTC
(in 19 hours)
Jan-20 @ 06:00 - Jan-20 @ 10:00
Wind Visibility
Variable at 2 knots 10,000+ meters
Clouds
  • Broken at 3,500' AGL
Becoming Jan-20 @ 10:00 - Jan-21 @ 01:00
Wind Visibility
Variable at 2 knots 10,000+ meters
Clouds
  • Few at 3,000' AGL
  • Scattered at 25,000' AGL
Temporary Jan-20 @ 21:00 - Jan-21 @ 00:00
Clouds
  • No significant clouds
Conditions
  • Freezing
  • Patches of
  • Fog
Becoming Jan-21 @ 01:00 - Jan-21 @ 06:00
Wind Visibility
Variable at 2 knots 5,005 meters
Clouds
  • Broken at 500' AGL
Conditions
  • Mist